Time;durP1;ratioP1;P1;durP2;ratioP2;P2;SDS_P1;SDS_P2;PMS_P1;PMS_P2;Temp;Humidity;BMP_temperature;BMP_pressure;BME280_temperature;BME280_humidity;BME280_pressure;Samples;Min_cycle;Max_cycle;Signal;HPM_P1;HPM_P2
2022/09/22 00:01:19;;;;;;;7.60;3.43;;;11.90;1.00;;;;;;5031888;28;20466;-80
2022/09/22 00:03:50;;;;;;;8.53;3.80;;;12.00;1.00;;;;;;5035346;28;20472;-79
2022/09/22 00:06:20;;;;;;;8.17;3.27;;;11.90;1.00;;;;;;5032249;28;20484;-79
2022/09/22 00:08:50;;;;;;;7.90;3.40;;;11.90;1.00;;;;;;5032352;28;20463;-80
2022/09/22 00:11:19;;;;;;;7.40;2.80;;;11.90;1.00;;;;;;5029271;28;20532;-77
2022/09/22 00:13:50;;;;;;;8.60;3.50;;;11.90;1.00;;;;;;5032853;28;20491;-79
2022/09/22 00:16:30;;;;;;;7.93;3.53;;;11.90;1.00;;;;;;5031915;28;20425;-78
2022/09/22 00:18:57;;;;;;;8.07;4.00;;;11.90;1.00;;;;;;5033026;28;20467;-80
2022/09/22 00:21:26;;;;;;;7.53;3.80;;;11.80;1.00;;;;;;5032811;28;20453;-79
2022/09/22 00:23:55;;;;;;;11.97;4.17;;;11.80;1.00;;;;;;5033455;28;20460;-79
2022/09/22 00:26:24;;;;;;;8.63;3.80;;;11.70;1.00;;;;;;5028853;28;20472;-79
2022/09/22 00:28:56;;;;;;;7.60;3.60;;;11.70;1.00;;;;;;5030632;28;20487;-81
2022/09/22 00:31:27;;;;;;;8.93;3.90;;;11.60;1.00;;;;;;5031460;28;21785;-82
2022/09/22 00:33:55;;;;;;;7.57;3.30;;;11.50;1.00;;;;;;5028327;28;21001;-80
2022/09/22 00:36:24;;;;;;;7.80;3.50;;;11.40;1.00;;;;;;5032466;28;20464;-78
2022/09/22 00:38:52;;;;;;;7.90;3.27;;;11.40;1.00;;;;;;5030559;28;20465;-80
2022/09/22 00:41:24;;;;;;;8.57;3.87;;;11.30;1.00;;;;;;5031241;28;20474;-79
2022/09/22 00:44:31;;;;;;;10.40;3.20;;;11.20;1.00;;;;;;5031775;28;20465;-78
2022/09/22 00:47:05;;;;;;;8.77;4.13;;;11.10;1.00;;;;;;5031672;28;20460;-78
2022/09/22 00:49:38;;;;;;;9.90;3.40;;;11.00;1.00;;;;;;5030742;28;20467;-79
2022/09/22 00:52:06;;;;;;;8.80;3.80;;;10.90;1.00;;;;;;5030141;28;20448;-81
2022/09/22 00:54:34;;;;;;;8.00;3.50;;;10.90;1.00;;;;;;5033284;28;20472;-79
2022/09/22 00:57:05;;;;;;;8.70;3.67;;;10.90;1.00;;;;;;5031894;28;20457;-80
2022/09/22 00:59:35;;;;;;;8.43;3.63;;;10.80;1.00;;;;;;5032052;28;20492;-80
2022/09/22 01:02:02;;;;;;;8.93;3.73;;;10.70;1.00;;;;;;5031642;28;20469;-79
2022/09/22 01:04:29;;;;;;;11.00;3.30;;;10.70;1.00;;;;;;5032758;28;20478;-80
2022/09/22 01:06:58;;;;;;;8.50;3.50;;;10.70;1.00;;;;;;5030703;28;20472;-78
2022/09/22 01:09:28;;;;;;;8.87;3.50;;;10.60;1.00;;;;;;5033587;28;20430;-80
2022/09/22 01:11:56;;;;;;;7.80;3.20;;;10.50;1.00;;;;;;5029345;28;21706;-80
2022/09/22 01:14:39;;;;;;;8.10;3.30;;;10.50;1.00;;;;;;5030125;28;20623;-80
2022/09/22 01:17:15;;;;;;;8.30;3.07;;;10.60;1.00;;;;;;5033662;28;20539;-80
2022/09/22 01:20:17;;;;;;;8.53;3.67;;;10.60;1.00;;;;;;5019184;28;20469;-80
2022/09/22 01:23:13;;;;;;;8.70;3.43;;;10.60;1.00;;;;;;5030377;28;21080;-80
2022/09/22 01:26:10;;;;;;;10.30;3.50;;;10.60;1.00;;;;;;5033886;28;20456;-80
2022/09/22 01:29:07;;;;;;;8.40;3.30;;;10.60;1.00;;;;;;5030841;28;20558;-79
2022/09/22 01:31:51;;;;;;;10.37;4.33;;;10.60;1.00;;;;;;5033002;28;20437;-79
2022/09/22 01:34:25;;;;;;;11.10;4.63;;;10.60;1.00;;;;;;5029998;28;20453;-79
2022/09/22 01:37:01;;;;;;;22.30;6.10;;;10.60;1.00;;;;;;5030428;28;20477;-78
2022/09/22 01:39:33;;;;;;;14.80;6.60;;;10.60;1.00;;;;;;5031195;28;20972;-78
2022/09/22 01:42:09;;;;;;;12.83;5.90;;;10.70;1.00;;;;;;5031053;28;20465;-78
2022/09/22 01:44:44;;;;;;;13.57;6.23;;;10.60;1.00;;;;;;5035132;28;20463;-79
2022/09/22 01:47:21;;;;;;;12.97;6.03;;;10.60;1.00;;;;;;5011879;28;21065;-78
2022/09/22 01:49:53;;;;;;;14.53;7.00;;;10.50;1.00;;;;;;5020929;28;20473;-80
2022/09/22 01:52:26;;;;;;;11.60;5.47;;;10.50;1.00;;;;;;5030041;28;20472;-80
2022/09/22 01:54:57;;;;;;;14.43;7.20;;;10.50;1.00;;;;;;5026483;28;20463;-78
2022/09/22 01:57:29;;;;;;;12.07;6.37;;;10.40;1.00;;;;;;5031279;28;20464;-78
2022/09/22 02:00:03;;;;;;;14.43;6.20;;;10.30;1.00;;;;;;5031494;28;20453;-77
2022/09/22 02:02:37;;;;;;;12.37;6.20;;;10.30;1.00;;;;;;5030594;28;21086;-79
2022/09/22 02:05:08;;;;;;;16.43;7.20;;;10.30;1.00;;;;;;5031308;28;20469;-77
2022/09/22 02:07:40;;;;;;;16.77;7.23;;;10.20;1.00;;;;;;5028133;28;20562;-78
2022/09/22 02:10:09;;;;;;;15.90;7.60;;;10.30;1.00;;;;;;5018842;28;20553;-79
2022/09/22 02:12:37;;;;;;;13.47;5.77;;;10.30;1.00;;;;;;5032835;28;20461;-80
2022/09/22 02:18:06;;;;;;;11.43;5.57;;;10.10;1.00;;;;;;5035626;28;20449;-78
2022/09/22 02:20:36;;;;;;;14.27;5.50;;;10.00;1.00;;;;;;5039949;28;20433;-80
2022/09/22 02:23:03;;;;;;;11.77;4.90;;;9.90;1.00;;;;;;5022002;28;20235;-80
2022/09/22 02:25:35;;;;;;;10.07;4.60;;;9.80;1.00;;;;;;5008779;28;20450;-80
2022/09/22 02:28:03;;;;;;;11.53;4.73;;;9.80;1.00;;;;;;5012040;28;20243;-79
2022/09/22 02:30:31;;;;;;;9.88;4.45;;;9.70;1.00;;;;;;5027916;28;20421;-80
2022/09/22 02:33:00;;;;;;;10.70;4.63;;;9.70;1.00;;;;;;5028256;28;20227;-79
2022/09/22 02:35:31;;;;;;;12.87;4.53;;;9.60;1.00;;;;;;5028948;28;20413;-79
2022/09/22 02:38:10;;;;;;;15.35;6.00;;;9.60;1.00;;;;;;5030306;28;20907;-80
2022/09/22 02:40:45;;;;;;;13.02;6.30;;;9.60;1.00;;;;;;5027605;28;20797;-80
2022/09/22 02:43:22;;;;;;;13.20;5.20;;;9.50;1.00;;;;;;5029297;28;20238;-79
2022/09/22 02:46:00;;;;;;;12.07;4.97;;;9.50;1.00;;;;;;5028496;28;20238;-79
2022/09/22 02:48:33;;;;;;;11.87;5.00;;;9.50;1.00;;;;;;5030937;28;20515;-79
2022/09/22 02:51:01;;;;;;;13.50;5.82;;;9.50;1.00;;;;;;5028618;28;20540;-79
2022/09/22 02:53:28;;;;;;;13.03;5.67;;;9.40;1.00;;;;;;5025414;28;20824;-78
2022/09/22 02:55:56;;;;;;;14.30;4.97;;;9.40;1.00;;;;;;5019143;28;20468;-80
2022/09/22 02:58:22;;;;;;;12.17;5.17;;;9.40;1.00;;;;;;5029134;28;20797;-79
2022/09/22 03:00:49;;;;;;;17.38;5.13;;;9.40;1.00;;;;;;5028713;28;20453;-78
2022/09/22 03:03:16;;;;;;;11.53;4.37;;;9.30;1.00;;;;;;5028600;28;20241;-79
2022/09/22 03:05:46;;;;;;;13.37;5.77;;;9.30;1.00;;;;;;5030981;28;20468;-78
2022/09/22 03:08:13;;;;;;;12.85;5.70;;;9.30;1.00;;;;;;5032407;28;20477;-79
2022/09/22 03:10:40;;;;;;;13.40;6.20;;;9.30;1.00;;;;;;5024899;28;20239;-79
2022/09/22 03:13:07;;;;;;;14.93;5.53;;;9.20;1.00;;;;;;5032753;28;20735;-78
2022/09/22 03:15:36;;;;;;;14.60;5.63;;;9.20;1.00;;;;;;5032524;28;20244;-79
2022/09/22 03:18:04;;;;;;;17.33;6.80;;;9.00;1.00;;;;;;5032343;28;20464;-79
2022/09/22 03:20:31;;;;;;;16.08;5.93;;;9.00;1.00;;;;;;5033491;28;20364;-79
2022/09/22 03:22:59;;;;;;;12.70;5.65;;;9.00;1.00;;;;;;5031391;28;20241;-79
2022/09/22 03:25:26;;;;;;;11.67;5.10;;;9.00;1.00;;;;;;5028266;28;20244;-79
2022/09/22 03:27:53;;;;;;;12.73;6.32;;;8.90;1.00;;;;;;5032184;28;20488;-80
2022/09/22 03:30:20;;;;;;;12.73;4.68;;;8.80;1.00;;;;;;5034142;28;20237;-78
2022/09/22 03:32:47;;;;;;;13.27;4.68;;;8.80;1.00;;;;;;5035010;28;21059;-79
2022/09/22 03:35:14;;;;;;;14.10;5.13;;;8.70;1.00;;;;;;5035151;28;20328;-80
2022/09/22 03:37:41;;;;;;;13.55;5.25;;;8.70;1.00;;;;;;5033811;28;20234;-79
2022/09/22 03:40:11;;;;;;;13.02;5.35;;;8.70;1.00;;;;;;5029821;28;20244;-79
2022/09/22 03:42:38;;;;;;;14.00;6.50;;;8.60;1.00;;;;;;5029922;28;20266;-79
2022/09/22 03:45:12;;;;;;;11.50;4.75;;;8.60;1.00;;;;;;5040417;28;20680;-80
2022/09/22 03:47:45;;;;;;;16.08;7.43;;;8.50;1.00;;;;;;5045302;28;20252;-80
2022/09/22 03:50:17;;;;;;;14.23;6.07;;;8.50;1.00;;;;;;5038747;28;20654;-79
2022/09/22 03:52:56;;;;;;;16.83;5.53;;;8.50;1.00;;;;;;5037578;28;20238;-80
2022/09/22 03:55:27;;;;;;;11.45;4.90;;;8.50;1.00;;;;;;5039640;28;20217;-79
2022/09/22 03:57:57;;;;;;;13.10;5.78;;;8.50;1.00;;;;;;5029115;28;20238;-79
2022/09/22 04:00:28;;;;;;;12.40;5.03;;;8.50;1.00;;;;;;5021983;28;21171;-80
2022/09/22 04:02:57;;;;;;;13.10;4.90;;;8.50;1.00;;;;;;5033656;28;20245;-80
2022/09/22 04:05:24;;;;;;;17.10;6.35;;;8.40;1.00;;;;;;5039669;28;20238;-80
2022/09/22 04:07:54;;;;;;;12.20;5.50;;;8.40;1.00;;;;;;5039179;28;20265;-80
2022/09/22 04:10:26;;;;;;;14.13;6.88;;;8.30;1.00;;;;;;5043094;28;20240;-80
2022/09/22 04:12:55;;;;;;;15.85;6.25;;;8.30;1.00;;;;;;5042339;28;20251;-79
2022/09/22 04:15:25;;;;;;;13.95;5.68;;;8.30;1.00;;;;;;5021954;28;21045;-78
2022/09/22 04:18:08;;;;;;;16.30;6.32;;;8.30;1.00;;;;;;5040577;28;20248;-80
2022/09/22 04:20:37;;;;;;;13.40;5.50;;;8.40;1.00;;;;;;5025511;28;20266;-78
2022/09/22 04:23:07;;;;;;;15.52;5.47;;;8.40;1.00;;;;;;5031938;28;20242;-78
2022/09/22 04:25:44;;;;;;;14.68;5.65;;;8.50;1.00;;;;;;5042078;28;20230;-81
2022/09/22 04:28:40;;;;;;;14.45;5.88;;;8.50;1.00;;;;;;5025961;28;20230;-79
2022/09/22 04:31:08;;;;;;;14.75;5.80;;;8.60;1.00;;;;;;5026098;28;20235;-78
2022/09/22 04:33:47;;;;;;;18.00;5.97;;;8.50;1.00;;;;;;5048407;28;20286;-80
2022/09/22 04:36:18;;;;;;;14.35;5.95;;;8.50;1.00;;;;;;5034434;28;20289;-79
2022/09/22 04:38:58;;;;;;;;;;;;;;;;;;;;;
2022/09/22 04:41:28;;;;;;;14.48;5.80;;;8.40;1.00;;;;;;5044672;28;40000;-79
2022/09/22 04:43:58;;;;;;;15.20;7.70;;;8.40;1.00;;;;;;5039144;28;21993;-81
2022/09/22 04:46:28;;;;;;;13.70;5.68;;;8.40;1.00;;;;;;5044084;28;20411;-79
2022/09/22 04:48:56;;;;;;;14.18;6.55;;;8.40;1.00;;;;;;5015717;28;20242;-79
2022/09/22 04:51:36;;;;;;;16.25;7.22;;;8.30;1.00;;;;;;5242899;22;20274;-83
2022/09/22 04:54:08;;;;;;;13.55;6.40;;;8.30;1.00;;;;;;5012859;28;20253;-82
2022/09/22 04:59:56;;;;;;;15.10;5.32;;;8.40;1.00;;;;;;5039858;28;20218;-82
2022/09/22 05:02:37;;;;;;;16.05;5.60;;;8.40;1.00;;;;;;5053762;28;20237;-81
2022/09/22 05:05:13;;;;;;;11.82;5.47;;;8.50;1.00;;;;;;5043548;28;20241;-81
2022/09/22 05:07:45;;;;;;;13.77;6.45;;;8.50;1.00;;;;;;5041337;28;20607;-80
2022/09/22 05:10:23;;;;;;;14.68;7.22;;;8.40;1.00;;;;;;5039141;28;20234;-80
2022/09/22 05:12:57;;;;;;;12.57;5.65;;;8.40;1.00;;;;;;5038032;28;20241;-80
2022/09/22 05:15:25;;;;;;;12.63;6.65;;;8.50;1.00;;;;;;5037823;28;20788;-78
2022/09/22 05:17:57;;;;;;;11.70;5.35;;;8.50;1.00;;;;;;5038077;28;20226;-78
2022/09/22 05:20:26;;;;;;;76.70;33.25;;;8.50;1.00;;;;;;5035444;28;21013;-78
2022/09/22 05:22:57;;;;;;;15.63;8.07;;;8.60;1.00;;;;;;5040710;28;21055;-79
2022/09/22 05:25:25;;;;;;;19.55;8.05;;;8.60;1.00;;;;;;5034003;28;20253;-79
2022/09/22 05:27:57;;;;;;;16.80;6.78;;;8.60;1.00;;;;;;5034490;28;20229;-79
2022/09/22 05:30:26;;;;;;;15.40;7.20;;;8.60;1.00;;;;;;5039253;28;20242;-78
2022/09/22 05:32:56;;;;;;;14.50;6.53;;;8.60;1.00;;;;;;5025277;28;20356;-78
2022/09/22 05:35:27;;;;;;;21.45;6.82;;;8.60;1.00;;;;;;5037503;28;20306;-80
2022/09/22 05:37:56;;;;;;;17.65;7.22;;;8.60;1.00;;;;;;5037985;28;20214;-78
2022/09/22 05:40:25;;;;;;;18.52;7.40;;;8.60;1.00;;;;;;5042161;28;20783;-80
2022/09/22 05:42:56;;;;;;;15.30;6.45;;;8.60;1.00;;;;;;5040921;28;20230;-80
2022/09/22 05:45:26;;;;;;;19.15;15.57;;;8.70;1.00;;;;;;5039473;28;20236;-79
2022/09/22 05:47:56;;;;;;;14.90;7.95;;;8.70;1.00;;;;;;5038492;28;20241;-79
2022/09/22 05:50:27;;;;;;;17.20;7.53;;;8.70;1.00;;;;;;5030868;28;20242;-80
2022/09/22 05:53:07;;;;;;;22.95;14.05;;;8.70;1.00;;;;;;5034228;28;20303;-80
2022/09/22 05:55:36;;;;;;;14.00;7.22;;;8.80;1.00;;;;;;5021920;28;20244;-79
2022/09/22 05:58:08;;;;;;;17.90;6.73;;;8.80;1.00;;;;;;5024098;28;20233;-80
2022/09/22 06:00:37;;;;;;;14.57;6.90;;;8.90;1.00;;;;;;5029225;28;20473;-78
2022/09/22 06:03:05;;;;;;;15.05;7.18;;;9.00;1.00;;;;;;5028989;28;20248;-80
2022/09/22 06:05:37;;;;;;;13.75;6.60;;;9.10;1.00;;;;;;5035812;28;20344;-81
2022/09/22 06:08:07;;;;;;;16.45;6.78;;;9.20;1.00;;;;;;5050766;28;20234;-77
2022/09/22 06:10:35;;;;;;;17.00;8.80;;;9.30;1.00;;;;;;5049623;28;20235;-82
2022/09/22 06:13:05;;;;;;;17.00;7.72;;;9.30;1.00;;;;;;5051578;28;20236;-82
2022/09/22 06:15:37;;;;;;;19.33;6.95;;;9.40;1.00;;;;;;5051389;28;20328;-80
2022/09/22 06:18:07;;;;;;;12.93;5.93;;;9.50;1.00;;;;;;5052658;28;20237;-81
2022/09/22 06:20:34;;;;;;;14.50;6.22;;;9.60;1.00;;;;;;5036751;28;20436;-81
2022/09/22 06:23:02;;;;;;;13.63;6.05;;;9.70;1.00;;;;;;5048681;28;20241;-80
2022/09/22 06:25:29;;;;;;;14.00;6.13;;;9.90;1.00;;;;;;5042801;28;20294;-81
2022/09/22 06:28:01;;;;;;;13.50;5.60;;;10.00;1.00;;;;;;5052213;28;20427;-81
2022/09/22 06:30:29;;;;;;;13.47;6.23;;;10.00;1.00;;;;;;5054513;28;20552;-81
2022/09/22 06:32:59;;;;;;;14.40;6.00;;;10.10;1.00;;;;;;5050516;28;20472;-81
2022/09/22 06:35:29;;;;;;;15.43;6.57;;;10.10;1.00;;;;;;5053767;28;20550;-79
2022/09/22 06:37:57;;;;;;;16.07;6.60;;;10.20;1.00;;;;;;5059640;28;21320;-80
2022/09/22 06:40:27;;;;;;;17.50;5.60;;;10.30;1.00;;;;;;5057419;28;20489;-81
2022/09/22 06:42:58;;;;;;;16.47;5.80;;;10.40;1.00;;;;;;5064114;28;20468;-81
2022/09/22 06:45:32;;;;;;;16.67;5.57;;;10.50;1.00;;;;;;5060748;28;20535;-80
2022/09/22 06:48:00;;;;;;;13.30;4.60;;;10.60;1.00;;;;;;5059661;28;20457;-80
2022/09/22 06:50:32;;;;;;;10.60;3.80;;;10.70;1.00;;;;;;5059219;28;20467;-81
2022/09/22 06:53:00;;;;;;;9.57;4.47;;;10.80;1.00;;;;;;5059347;28;20454;-81
2022/09/22 06:55:28;;;;;;;11.10;5.00;;;11.00;1.00;;;;;;5060301;28;20456;-80
2022/09/22 06:57:57;;;;;;;12.90;5.80;;;11.10;1.00;;;;;;5060331;28;20488;-81
2022/09/22 07:00:31;;;;;;;10.70;4.40;;;11.40;1.00;;;;;;5043550;28;20460;-81
2022/09/22 07:03:06;;;;;;;13.07;4.83;;;11.60;1.00;;;;;;5055928;28;20476;-81
2022/09/22 07:05:36;;;;;;;9.10;3.80;;;11.70;1.00;;;;;;5039917;28;20491;-80
2022/09/22 07:08:07;;;;;;;9.00;3.53;;;11.90;1.00;;;;;;5054518;28;20523;-81
2022/09/22 07:10:37;;;;;;;12.27;4.27;;;12.00;1.00;;;;;;5057662;28;20461;-80
2022/09/22 07:13:05;;;;;;;10.37;3.70;;;12.10;1.00;;;;;;5053150;28;20448;-82
2022/09/22 07:15:34;;;;;;;14.07;4.13;;;12.40;1.00;;;;;;5055076;28;20440;-81
2022/09/22 07:18:09;;;;;;;9.40;4.47;;;12.60;1.00;;;;;;5050123;28;20450;-82
2022/09/22 07:20:37;;;;;;;9.90;3.30;;;12.70;1.00;;;;;;5054361;28;20475;-80
2022/09/22 07:23:17;;;;;;;9.30;3.47;;;12.70;1.00;;;;;;5053359;28;20976;-79
2022/09/22 07:25:55;;;;;;;9.80;3.97;;;12.90;1.00;;;;;;5035074;28;20461;-82
2022/09/22 07:28:22;;;;;;;9.00;3.03;;;12.90;1.00;;;;;;5053959;28;20461;-80
2022/09/22 07:30:52;;;;;;;10.07;3.20;;;12.90;1.00;;;;;;5055141;28;20472;-79
2022/09/22 07:33:23;;;;;;;7.60;2.97;;;12.80;1.00;;;;;;5052821;28;20467;-80
2022/09/22 07:36:00;;;;;;;7.50;2.90;;;12.80;1.00;;;;;;5051312;28;20452;-80
2022/09/22 07:38:32;;;;;;;8.93;3.37;;;12.90;1.00;;;;;;5053884;28;21414;-80
2022/09/22 07:40:59;;;;;;;9.07;2.47;;;12.90;1.00;;;;;;5052779;28;20436;-79
2022/09/22 07:43:28;;;;;;;6.60;2.30;;;13.00;1.00;;;;;;5053309;28;20417;-80
2022/09/22 07:46:00;;;;;;;7.23;2.40;;;13.00;1.00;;;;;;5054199;28;20591;-80
2022/09/22 07:48:41;;;;;;;7.70;2.50;;;12.90;1.00;;;;;;5056743;28;20464;-79
2022/09/22 07:51:11;;;;;;;11.00;2.90;;;13.10;1.00;;;;;;5054833;28;20472;-81
2022/09/22 07:53:42;;;;;;;8.67;3.87;;;13.10;1.00;;;;;;5051323;28;20452;-80
2022/09/22 07:56:11;;;;;;;12.17;3.27;;;13.30;1.00;;;;;;5046175;28;20913;-84
2022/09/22 07:58:47;;;;;;;9.17;4.30;;;13.40;1.00;;;;;;5050528;28;20459;-82
2022/09/22 08:01:18;;;;;;;7.33;2.70;;;13.60;1.00;;;;;;5052602;28;20478;-80
2022/09/22 08:03:47;;;;;;;7.33;2.67;;;13.60;1.00;;;;;;5053079;28;20435;-79
2022/09/22 08:06:18;;;;;;;8.47;2.03;;;13.70;1.00;;;;;;5055690;28;20539;-81
2022/09/22 08:08:51;;;;;;;7.60;2.30;;;13.70;1.00;;;;;;5054637;28;20871;-81
2022/09/22 08:11:20;;;;;;;8.50;2.07;;;13.80;1.00;;;;;;5044930;28;20479;-83
2022/09/22 08:13:54;;;;;;;5.97;1.63;;;13.90;1.00;;;;;;5054210;28;20440;-81
2022/09/22 08:16:21;;;;;;;6.87;1.90;;;14.00;1.00;;;;;;5057256;28;20463;-82
2022/09/22 08:18:55;;;;;;;6.23;1.67;;;14.10;1.00;;;;;;5052070;28;20473;-81
2022/09/22 08:21:22;;;;;;;11.80;3.43;;;14.20;1.00;;;;;;5057876;28;21000;-82
2022/09/22 08:23:51;;;;;;;5.70;1.60;;;14.30;1.00;;;;;;5058699;28;20544;-81
2022/09/22 08:26:19;;;;;;;8.37;2.27;;;14.40;1.00;;;;;;5052600;28;20523;-81
2022/09/22 08:28:51;;;;;;;8.03;2.30;;;14.50;1.00;;;;;;5058590;28;20425;-81
2022/09/22 08:31:19;;;;;;;9.27;2.90;;;14.60;1.00;;;;;;5054300;28;20443;-82
2022/09/22 08:33:48;;;;;;;7.30;1.97;;;14.80;1.00;;;;;;5060865;28;20481;-82
2022/09/22 08:36:18;;;;;;;7.43;1.00;;;14.80;1.00;;;;;;5059738;28;20408;-82
2022/09/22 08:38:48;;;;;;;9.80;1.93;;;15.00;1.00;;;;;;5060049;28;20475;-84
2022/09/22 08:41:37;;;;;;;9.13;1.93;;;15.10;1.00;;;;;;5056359;28;20467;-82
2022/09/22 08:44:19;;;;;;;7.97;2.10;;;15.20;1.00;;;;;;5060453;28;20440;-82
2022/09/22 08:46:47;;;;;;;7.77;1.20;;;15.10;1.00;;;;;;5057364;28;20423;-80
2022/09/22 08:52:25;;;;;;;6.37;1.60;;;15.40;1.00;;;;;;5056934;28;20480;-79
2022/09/22 08:54:59;;;;;;;7.00;2.93;;;15.50;1.00;;;;;;5051698;28;20451;-79
2022/09/22 08:57:55;;;;;;;9.43;4.70;;;15.70;1.00;;;;;;5054720;28;20518;-79
2022/09/22 09:00:26;;;;;;;7.30;1.10;;;15.90;1.00;;;;;;5056070;28;20440;-81
2022/09/22 09:03:17;;;;;;;6.50;1.17;;;16.00;1.00;;;;;;5058317;28;20473;-82
2022/09/22 09:06:10;;;;;;;5.20;0.90;;;16.20;1.00;;;;;;5060362;28;20528;-79
2022/09/22 09:09:09;;;;;;;5.20;1.13;;;16.90;1.00;;;;;;5055360;28;20924;-80
2022/09/22 09:12:08;;;;;;;7.50;1.50;;;18.70;1.00;;;;;;5056614;28;20452;-79
2022/09/22 09:15:07;;;;;;;10.63;5.30;;;20.30;1.00;;;;;;5058735;28;20494;-80
2022/09/22 09:17:41;;;;;;;3.63;0.80;;;20.70;1.00;;;;;;5057651;28;20421;-81
2022/09/22 09:20:19;;;;;;;3.20;1.00;;;22.40;1.00;;;;;;5059437;28;20528;-84
2022/09/22 09:23:02;;;;;;;4.50;1.37;;;23.30;1.00;;;;;;5056839;28;20551;-79
2022/09/22 09:25:45;;;;;;;3.07;0.80;;;22.50;1.00;;;;;;5055926;28;20480;-80
2022/09/22 09:28:18;;;;;;;3.50;1.50;;;22.90;1.00;;;;;;5054494;28;20396;-82
2022/09/22 09:30:54;;;;;;;3.70;1.57;;;24.20;1.00;;;;;;5053505;28;20551;-82
2022/09/22 09:33:31;;;;;;;3.70;1.20;;;25.10;1.00;;;;;;5057792;28;20516;-80
2022/09/22 09:36:05;;;;;;;4.87;1.40;;;23.90;1.00;;;;;;5058539;28;20499;-83
2022/09/22 09:38:47;;;;;;;3.73;1.10;;;22.20;1.00;;;;;;5057589;28;20423;-81
2022/09/22 09:41:25;;;;;;;4.40;1.67;;;21.50;1.00;;;;;;5057355;28;20479;-80
2022/09/22 09:43:57;;;;;;;4.53;1.60;;;21.60;1.00;;;;;;5058046;28;20499;-80
2022/09/22 09:46:39;;;;;;;3.00;1.20;;;21.40;1.00;;;;;;5033475;28;20445;-81
2022/09/22 09:49:13;;;;;;;3.63;0.70;;;21.40;1.00;;;;;;5053422;28;20826;-80
2022/09/22 09:51:47;;;;;;;3.23;1.13;;;21.80;1.00;;;;;;5051081;28;20558;-80
2022/09/22 09:54:18;;;;;;;4.67;2.17;;;22.60;1.00;;;;;;5053654;28;20462;-77
2022/09/22 09:57:18;;;;;;;3.40;0.90;;;22.80;1.00;;;;;;5055503;28;20490;-81
2022/09/22 10:02:47;;;;;;;5.00;1.70;;;20.20;1.00;;;;;;5053715;28;20503;-81
2022/09/22 10:05:26;;;;;;;6.00;2.00;;;19.90;1.00;;;;;;5053631;28;20649;-82
2022/09/22 10:07:57;;;;;;;4.00;1.33;;;21.60;1.00;;;;;;5054923;28;20436;-81
2022/09/22 10:10:36;;;;;;;7.00;1.97;;;22.30;1.00;;;;;;5055311;28;20444;-81
2022/09/22 10:13:25;;;;;;;2.70;0.60;;;23.20;1.00;;;;;;5051916;28;20423;-81
2022/09/22 10:16:25;;;;;;;4.10;1.23;;;22.70;1.00;;;;;;5055831;28;21211;-80
2022/09/22 10:19:18;;;;;;;3.20;1.20;;;21.40;1.00;;;;;;5052167;28;20477;-82
2022/09/22 10:21:54;;;;;;;7.77;1.70;;;20.30;1.00;;;;;;5035373;28;20447;-83
2022/09/22 10:24:36;;;;;;;3.40;0.93;;;19.60;1.00;;;;;;5058413;28;20433;-84
2022/09/22 10:27:04;;;;;;;3.63;1.03;;;19.00;1.00;;;;;;5055622;28;20500;-81
2022/09/22 10:29:54;;;;;;;3.60;1.60;;;18.50;1.00;;;;;;5057064;28;20417;-80
2022/09/22 10:32:30;;;;;;;4.40;1.23;;;18.10;1.00;;;;;;5057242;28;20459;-79
2022/09/22 10:34:59;;;;;;;5.93;2.40;;;18.00;1.00;;;;;;5057798;28;20428;-79
2022/09/22 10:37:33;;;;;;;5.03;1.60;;;18.80;1.00;;;;;;5056319;28;20406;-83
2022/09/22 10:40:14;;;;;;;7.83;2.17;;;21.00;1.00;;;;;;5052834;28;20443;-80
2022/09/22 10:42:54;;;;;;;4.17;1.30;;;23.70;1.00;;;;;;5052869;28;20444;-79
2022/09/22 10:45:36;;;;;;;3.67;1.10;;;26.60;1.00;;;;;;5054855;28;20455;-83
2022/09/22 10:48:16;;;;;;;3.63;1.20;;;29.10;1.00;;;;;;5049208;28;20961;-83
2022/09/22 10:50:58;;;;;;;3.43;1.27;;;30.80;1.00;;;;;;5047134;28;20506;-78
2022/09/22 10:53:41;;;;;;;3.57;1.10;;;31.60;1.00;;;;;;5049141;28;20432;-78
2022/09/22 10:56:22;;;;;;;2.43;0.90;;;32.30;1.00;;;;;;5049455;28;20460;-79
2022/09/22 10:59:13;;;;;;;3.70;0.83;;;32.10;1.00;;;;;;5048715;28;20472;-79
2022/09/22 11:01:57;;;;;;;5.60;3.40;;;31.80;1.00;;;;;;5048231;28;20574;-79
2022/09/22 11:04:41;;;;;;;4.93;2.77;;;33.10;1.00;;;;;;5046916;28;20455;-78
2022/09/22 11:13:33;;;;;;;5.00;1.40;;;33.90;1.00;;;;;;5047173;28;20477;-79
2022/09/22 11:16:21;;;;;;;1.77;0.90;;;33.80;1.00;;;;;;5049152;28;20439;-77
2022/09/22 11:19:04;;;;;;;3.70;1.40;;;32.60;1.00;;;;;;5037878;28;20444;-79
2022/09/22 11:21:49;;;;;;;2.10;0.87;;;31.20;1.00;;;;;;5049276;28;20437;-79
2022/09/22 11:24:43;;;;;;;2.87;0.87;;;28.70;1.00;;;;;;5046988;28;20499;-78
2022/09/22 11:27:18;;;;;;;2.00;0.80;;;28.30;1.00;;;;;;5049064;28;20451;-77
2022/09/22 11:30:15;;;;;;;2.60;0.90;;;29.10;1.00;;;;;;5056058;28;20480;-78
2022/09/22 11:33:16;;;;;;;2.60;0.73;;;30.10;1.00;;;;;;5055786;28;20475;-80
2022/09/22 11:36:07;;;;;;;4.90;1.00;;;28.30;1.00;;;;;;5056063;28;20468;-79
2022/09/22 11:39:05;;;;;;;2.70;0.83;;;26.10;1.00;;;;;;5056543;28;20432;-79
2022/09/22 11:41:46;;;;;;;3.43;1.00;;;24.30;1.00;;;;;;5054343;28;20452;-81
2022/09/22 11:44:36;;;;;;;4.70;1.30;;;24.40;1.00;;;;;;5058655;28;20416;-81
2022/09/22 11:47:38;;;;;;;3.77;1.40;;;26.20;1.00;;;;;;5052579;28;20444;-84
2022/09/22 11:50:35;;;;;;;2.27;0.70;;;28.00;1.00;;;;;;5047348;28;21331;-84
2022/09/22 11:53:34;;;;;;;2.20;0.70;;;30.00;1.00;;;;;;5055241;28;20436;-81
2022/09/22 11:56:21;;;;;;;1.70;0.67;;;30.40;1.00;;;;;;5050696;28;20443;-80
2022/09/22 11:59:05;;;;;;;1.63;0.77;;;31.10;1.00;;;;;;5052835;28;20546;-81
2022/09/22 12:01:39;;;;;;;1.70;0.90;;;32.30;1.00;;;;;;5042843;28;20467;-81
2022/09/22 12:04:25;;;;;;;3.40;1.10;;;33.40;1.00;;;;;;5045094;28;20510;-80
2022/09/22 12:07:05;;;;;;;1.73;0.80;;;34.20;1.00;;;;;;5040973;28;20460;-83
2022/09/22 12:09:44;;;;;;;2.87;0.70;;;35.10;1.00;;;;;;5050646;28;20449;-80
2022/09/22 12:12:29;;;;;;;3.70;0.83;;;36.00;1.00;;;;;;5049522;28;20486;-79
2022/09/22 12:15:05;;;;;;;2.60;1.57;;;37.10;1.00;;;;;;5056323;28;20448;-80
2022/09/22 12:17:44;;;;;;;2.53;0.80;;;37.70;1.00;;;;;;5055573;28;20424;-82
2022/09/22 12:20:31;;;;;;;2.10;1.00;;;37.90;1.00;;;;;;5057059;28;20469;-83
2022/09/22 12:23:16;;;;;;;2.63;1.10;;;37.40;1.00;;;;;;5036346;28;21747;-81
2022/09/22 12:26:08;;;;;;;1.93;0.93;;;37.10;1.00;;;;;;5049253;28;20464;-81
2022/09/22 12:28:45;;;;;;;1.80;0.80;;;37.70;1.00;;;;;;5060557;28;21343;-82
2022/09/22 12:31:19;;;;;;;2.10;0.90;;;37.00;1.00;;;;;;5058594;28;20435;-80
2022/09/22 12:33:55;;;;;;;2.73;1.03;;;36.80;1.00;;;;;;5060510;28;20435;-82
2022/09/22 12:36:44;;;;;;;2.63;0.80;;;37.10;1.00;;;;;;5056966;28;20456;-82
2022/09/22 12:39:48;;;;;;;1.07;0.40;;;37.90;1.00;;;;;;5055790;28;20428;-82
2022/09/22 12:42:50;;;;;;;3.20;1.20;;;37.20;1.00;;;;;;5059676;28;20462;-80
2022/09/22 12:45:36;;;;;;;2.63;1.63;;;36.60;1.00;;;;;;5046812;28;20456;-83
2022/09/22 12:48:11;;;;;;;2.00;0.93;;;36.20;1.00;;;;;;5052617;28;20448;-82
2022/09/22 12:50:39;;;;;;;3.60;1.20;;;36.20;1.00;;;;;;5048514;28;20463;-82
2022/09/22 12:53:25;;;;;;;1.57;0.60;;;36.70;1.00;;;;;;5049788;28;20460;-84
2022/09/22 12:55:55;;;;;;;2.23;0.90;;;34.40;1.00;;;;;;5051740;28;20915;-82
2022/09/22 12:58:45;;;;;;;2.90;0.93;;;31.60;1.00;;;;;;5053098;28;20464;-82
2022/09/22 13:01:38;;;;;;;2.80;1.10;;;29.10;1.00;;;;;;5050815;28;20435;-82
2022/09/22 13:04:18;;;;;;;4.37;1.50;;;27.60;1.00;;;;;;5035179;28;21264;-81
2022/09/22 13:07:04;;;;;;;2.60;0.90;;;26.80;1.00;;;;;;5054631;28;20453;-81
2022/09/22 13:09:32;;;;;;;3.53;1.30;;;25.20;1.00;;;;;;5051195;28;20466;-82
2022/09/22 13:12:26;;;;;;;10.07;2.17;;;23.90;1.00;;;;;;5055994;28;20449;-82
2022/09/22 13:15:21;;;;;;;5.30;2.47;;;23.20;1.00;;;;;;5036683;28;20541;-82
2022/09/22 13:17:52;;;;;;;5.70;1.70;;;23.20;1.00;;;;;;5052383;28;20512;-79
2022/09/22 13:20:39;;;;;;;3.13;1.80;;;23.20;1.00;;;;;;5047959;28;20472;-77
2022/09/22 13:23:30;;;;;;;8.50;1.23;;;23.00;1.00;;;;;;5055640;28;20449;-78
2022/09/22 13:26:06;;;;;;;8.37;2.00;;;22.50;1.00;;;;;;5050757;28;21196;-80
2022/09/22 13:28:37;;;;;;;5.70;1.93;;;22.10;1.00;;;;;;5051182;28;20828;-79
2022/09/22 13:31:38;;;;;;;5.70;1.90;;;21.60;1.00;;;;;;5024109;28;20824;-79
2022/09/22 13:34:19;;;;;;;4.10;1.23;;;21.30;1.00;;;;;;5020058;28;20488;-79
2022/09/22 13:36:51;;;;;;;2.80;1.00;;;20.80;1.00;;;;;;5047061;28;20481;-79
2022/09/22 13:39:23;;;;;;;4.47;1.60;;;20.50;1.00;;;;;;5053093;28;20459;-81
2022/09/22 13:41:58;;;;;;;3.50;1.50;;;20.20;1.00;;;;;;5050099;28;20429;-80
2022/09/22 13:44:40;;;;;;;4.10;1.57;;;20.00;1.00;;;;;;5058538;28;21243;-84
2022/09/22 13:47:22;;;;;;;5.57;1.07;;;20.00;1.00;;;;;;5060161;28;20488;-83
2022/09/22 13:49:56;;;;;;;4.60;1.80;;;19.90;1.00;;;;;;5056027;28;21318;-83
2022/09/22 13:52:28;;;;;;;3.03;1.17;;;20.10;1.00;;;;;;5064339;28;21102;-82
2022/09/22 13:54:58;;;;;;;9.57;2.87;;;20.10;1.00;;;;;;5056193;28;20447;-82
2022/09/22 13:57:38;;;;;;;7.50;1.60;;;20.20;1.00;;;;;;5060614;28;20467;-82
2022/09/22 14:00:17;;;;;;;3.67;1.20;;;20.30;1.00;;;;;;5058872;28;20425;-81